Time;durP1;ratioP1;P1;durP2;ratioP2;P2;SDS_P1;SDS_P2;PMS_P1;PMS_P2;Temp;Humidity;BMP_temperature;BMP_pressure;BME280_temperature;BME280_humidity;BME280_pressure;Samples;Min_cycle;Max_cycle;Signal;HPM_P1;HPM_P2
2021/07/08 00:01:23;;;;;;;4.20;3.80;;;;;;;18.69;74.78;97007.38;5080565;28;20074;-77
2021/07/08 00:03:51;;;;;;;4.47;4.00;;;;;;;18.66;74.39;97019.22;5079893;28;20044;-78
2021/07/08 00:06:19;;;;;;;5.63;3.90;;;;;;;18.65;74.27;97017.59;5081305;28;20501;-77
2021/07/08 00:08:46;;;;;;;3.45;3.15;;;;;;;18.63;74.34;96998.53;5083476;28;20437;-79
2021/07/08 00:11:14;;;;;;;4.03;3.50;;;;;;;18.62;74.26;97001.38;5084225;28;20437;-77
2021/07/08 00:13:45;;;;;;;5.90;4.07;;;;;;;18.60;74.06;97006.09;5082890;28;20059;-78
2021/07/08 00:16:12;;;;;;;6.38;3.55;;;;;;;18.55;74.03;97001.47;5083725;28;20064;-76
2021/07/08 00:18:40;;;;;;;6.15;4.22;;;;;;;18.52;74.12;97007.22;5084300;28;20048;-79
2021/07/08 00:21:08;;;;;;;4.00;3.70;;;;;;;18.50;74.24;97009.25;5083731;28;20485;-80
2021/07/08 00:23:35;;;;;;;5.05;3.80;;;;;;;18.48;74.45;97012.13;5083078;28;20040;-77
2021/07/08 00:26:03;;;;;;;5.90;4.10;;;;;;;18.48;74.64;97020.03;5082814;28;20494;-77
2021/07/08 00:28:31;;;;;;;4.78;4.10;;;;;;;18.45;74.46;97015.19;5084353;28;20052;-76
2021/07/08 00:31:00;;;;;;;5.85;4.13;;;;;;;18.42;74.67;97017.47;5083994;28;20048;-77
2021/07/08 00:33:28;;;;;;;7.93;4.00;;;;;;;18.39;74.67;97010.81;5082545;28;20059;-78
2021/07/08 00:35:55;;;;;;;4.45;4.05;;;;;;;18.35;74.82;97004.34;5083979;28;20056;-75
2021/07/08 00:38:23;;;;;;;4.60;3.85;;;;;;;18.31;74.99;97005.81;5083663;28;20060;-79
2021/07/08 00:40:50;;;;;;;4.40;4.05;;;;;;;18.26;75.26;97000.41;5082490;28;20094;-79
2021/07/08 00:43:18;;;;;;;6.07;4.10;;;;;;;18.23;75.51;97006.09;5083296;28;20041;-77
2021/07/08 00:45:46;;;;;;;6.85;4.10;;;;;;;18.21;75.74;97016.88;5085531;28;20055;-77
2021/07/08 00:48:15;;;;;;;5.53;3.60;;;;;;;18.24;76.72;97034.13;5085517;28;20052;-77
2021/07/08 00:50:46;;;;;;;7.45;4.22;;;;;;;18.29;77.42;97034.28;5084301;28;20044;-79
2021/07/08 00:53:15;;;;;;;5.53;4.15;;;;;;;18.31;77.00;97027.75;5083887;28;20049;-77
2021/07/08 00:55:45;;;;;;;6.40;4.25;;;;;;;18.32;76.51;97033.81;5084998;28;20052;-78
2021/07/08 00:58:15;;;;;;;3.92;3.53;;;;;;;18.35;77.90;97038.69;5084432;28;20056;-79
2021/07/08 01:00:43;;;;;;;4.85;4.45;;;;;;;18.35;76.54;97043.16;5083885;28;20056;-78
2021/07/08 01:03:13;;;;;;;6.78;5.63;;;;;;;18.32;76.27;97039.94;5082962;28;20056;-79
2021/07/08 01:05:44;;;;;;;6.30;4.32;;;;;;;18.28;76.27;97033.47;5084274;28;20174;-78
2021/07/08 01:08:13;;;;;;;6.07;4.45;;;;;;;18.24;76.29;97029.66;5084580;28;20059;-78
2021/07/08 01:10:42;;;;;;;5.43;4.68;;;;;;;18.21;76.68;97034.56;5084199;28;20056;-78
2021/07/08 01:13:10;;;;;;;4.40;3.97;;;;;;;18.18;76.92;97030.53;5082693;28;20048;-79
2021/07/08 01:15:38;;;;;;;5.40;4.90;;;;;;;18.16;76.51;97021.22;5084391;28;20049;-79
2021/07/08 01:18:05;;;;;;;5.05;4.20;;;;;;;18.11;76.67;97006.84;5081741;28;20056;-78
2021/07/08 01:20:34;;;;;;;5.57;4.72;;;;;;;18.07;76.44;97002.22;5084028;28;20098;-78
2021/07/08 01:23:24;;;;;;;6.55;4.55;;;;;;;18.01;76.49;97001.25;5544250;22;20044;-80
2021/07/08 01:25:51;;;;;;;6.20;5.53;;;;;;;17.96;76.56;96995.84;5083633;28;20048;-78
2021/07/08 01:28:19;;;;;;;7.47;4.47;;;;;;;17.92;76.78;96984.09;5084256;28;20067;-78
2021/07/08 01:30:47;;;;;;;5.28;4.63;;;;;;;17.90;76.82;96978.22;5083566;28;20059;-78
2021/07/08 01:33:14;;;;;;;5.05;4.55;;;;;;;17.90;77.32;96986.94;5083709;28;20048;-78
2021/07/08 01:35:42;;;;;;;5.30;4.43;;;;;;;17.91;76.92;96974.59;5084595;28;20098;-78
2021/07/08 01:38:10;;;;;;;6.15;5.03;;;;;;;17.94;76.98;96968.84;5083908;28;20110;-79
2021/07/08 01:40:39;;;;;;;7.75;4.68;;;;;;;17.97;77.81;96963.13;5083865;28;20049;-78
2021/07/08 01:43:07;;;;;;;5.72;4.82;;;;;;;17.99;77.18;96953.16;5083660;28;20048;-79
2021/07/08 01:45:34;;;;;;;5.90;4.28;;;;;;;18.00;76.85;96951.34;5083617;28;20067;-78
2021/07/08 01:48:02;;;;;;;4.40;4.00;;;;;;;18.01;77.23;96948.47;5083401;28;20048;-79
2021/07/08 01:50:30;;;;;;;4.55;4.10;;;;;;;18.03;76.88;96946.41;5083876;28;20052;-79
2021/07/08 01:52:57;;;;;;;4.95;4.47;;;;;;;18.03;76.81;96946.41;5081775;28;20072;-78
2021/07/08 01:55:25;;;;;;;4.38;3.92;;;;;;;18.03;76.44;96946.41;5081379;28;20040;-78
2021/07/08 01:57:56;;;;;;;4.82;3.80;;;;;;;18.04;78.05;96958.59;5080906;28;20258;-78
2021/07/08 02:00:25;;;;;;;4.20;3.90;;;;;;;18.12;79.41;96955.63;5080948;28;20055;-78
2021/07/08 02:02:54;;;;;;;5.20;4.05;;;;;;;18.20;79.29;96951.09;5082170;28;20045;-78
2021/07/08 02:05:21;;;;;;;4.60;4.15;;;;;;;18.21;77.93;96948.22;5081422;28;20048;-80
2021/07/08 02:07:50;;;;;;;4.47;3.83;;;;;;;18.18;76.86;96945.25;5080948;28;20063;-76
2021/07/08 02:10:18;;;;;;;6.35;3.72;;;;;;;18.15;76.58;96951.78;5081477;28;20420;-76
2021/07/08 02:12:46;;;;;;;5.47;3.72;;;;;;;18.13;76.50;96945.91;5082037;28;20044;-77
2021/07/08 02:15:16;;;;;;;4.88;3.50;;;;;;;18.12;76.51;96939.00;5082482;28;20111;-77
2021/07/08 02:17:43;;;;;;;3.95;3.50;;;;;;;18.10;76.68;96933.97;5082155;28;20048;-81
2021/07/08 02:20:13;;;;;;;3.50;3.22;;;;;;;18.07;76.63;96931.75;5081288;28;20052;-75
2021/07/08 02:22:40;;;;;;;2.83;2.63;;;;;;;18.09;77.38;96934.97;5081267;28;20441;-79
2021/07/08 02:25:10;;;;;;;3.40;3.15;;;;;;;18.07;76.52;96921.19;5081814;28;20048;-78
2021/07/08 02:27:37;;;;;;;5.55;2.95;;;;;;;18.05;76.34;96909.25;5081329;28;20067;-76
2021/07/08 02:30:09;;;;;;;3.47;3.17;;;;;;;18.04;76.24;96908.44;5081591;28;20059;-77
2021/07/08 02:32:38;;;;;;;3.78;2.90;;;;;;;18.01;76.31;96895.66;5081203;28;20063;-80
2021/07/08 02:35:08;;;;;;;5.82;3.10;;;;;;;17.98;76.22;96898.75;5081865;28;20059;-78
2021/07/08 02:37:35;;;;;;;4.35;3.20;;;;;;;17.95;76.31;96907.13;5081207;28;20504;-76
2021/07/08 02:40:04;;;;;;;4.05;2.80;;;;;;;17.93;76.76;96896.00;5080878;28;20055;-77
2021/07/08 02:42:32;;;;;;;3.75;3.30;;;;;;;17.94;76.67;96902.06;5081329;28;20048;-78
2021/07/08 02:44:59;;;;;;;4.00;3.38;;;;;;;17.95;76.98;96912.41;5081365;28;20049;-77
2021/07/08 02:47:27;;;;;;;4.43;4.03;;;;;;;17.96;77.13;96897.38;5080891;28;20057;-78
2021/07/08 02:49:58;;;;;;;4.57;3.97;;;;;;;17.98;77.66;96896.13;5080934;28;20048;-78
2021/07/08 02:52:26;;;;;;;4.03;3.65;;;;;;;17.99;78.23;96896.91;5080034;28;20045;-76
2021/07/08 02:54:53;;;;;;;4.57;3.78;;;;;;;18.01;77.12;96906.22;5078756;28;20041;-77
2021/07/08 02:57:21;;;;;;;4.53;3.53;;;;;;;18.02;77.22;96910.50;5080552;28;20052;-79
2021/07/08 02:59:49;;;;;;;5.30;3.58;;;;;;;18.01;76.63;96911.50;5080640;28;20044;-77
2021/07/08 03:02:16;;;;;;;4.97;2.70;;;;;;;17.99;76.31;96905.63;5080595;28;20059;-77
2021/07/08 03:04:47;;;;;;;3.78;3.42;;;;;;;17.98;76.03;96911.97;5081158;28;20059;-78
2021/07/08 03:07:16;;;;;;;3.85;2.80;;;;;;;17.97;76.69;96914.81;5080661;28;20065;-77
2021/07/08 03:09:44;;;;;;;3.63;3.15;;;;;;;18.02;77.79;96925.53;5080536;28;20055;-78
2021/07/08 03:12:11;;;;;;;4.15;3.20;;;;;;;18.04;77.83;96916.38;5081571;28;20056;-75
2021/07/08 03:14:38;;;;;;;3.60;3.30;;;;;;;18.03;76.55;96919.22;5082545;28;20049;-78
2021/07/08 03:17:06;;;;;;;4.35;2.90;;;;;;;18.00;75.95;96919.66;5081962;28;20048;-79
2021/07/08 03:19:34;;;;;;;4.57;3.05;;;;;;;18.01;76.44;96921.25;5082452;28;20501;-78
2021/07/08 03:22:02;;;;;;;3.55;3.22;;;;;;;18.02;77.21;96923.69;5082176;28;20394;-78
2021/07/08 03:24:30;;;;;;;3.25;2.95;;;;;;;18.04;76.56;96932.19;5081357;28;20045;-79
2021/07/08 03:26:58;;;;;;;3.50;3.20;;;;;;;18.02;76.29;96934.25;5082558;28;20057;-79
2021/07/08 03:29:25;;;;;;;3.30;3.00;;;;;;;17.97;75.23;96936.72;5081766;28;20049;-79
2021/07/08 03:31:53;;;;;;;5.65;4.13;;;;;;;17.92;75.23;96933.94;5081476;28;20056;-79
2021/07/08 03:34:20;;;;;;;5.65;3.88;;;;;;;17.88;75.14;96922.22;5081089;28;20048;-77
2021/07/08 03:36:48;;;;;;;4.00;3.58;;;;;;;17.85;75.00;96926.09;5081661;28;20052;-80
2021/07/08 03:39:15;;;;;;;6.85;3.58;;;;;;;17.82;75.03;96925.72;5081659;28;20090;-79
2021/07/08 03:41:45;;;;;;;7.55;4.05;;;;;;;17.75;75.02;96919.69;5081640;28;20076;-78
2021/07/08 03:44:12;;;;;;;6.68;3.47;;;;;;;17.69;75.15;96927.47;5085859;28;20048;-79
2021/07/08 03:46:40;;;;;;;5.07;3.88;;;;;;;17.66;75.02;96919.19;5086076;28;20493;-80
2021/07/08 03:49:08;;;;;;;4.63;3.72;;;;;;;17.67;75.47;96921.59;5084756;28;20074;-78
2021/07/08 03:51:35;;;;;;;3.47;2.90;;;;;;;17.69;75.63;96921.41;5083828;28;20048;-78
2021/07/08 03:54:03;;;;;;;3.67;3.30;;;;;;;17.71;75.70;96911.44;5081601;28;20077;-77
2021/07/08 03:56:30;;;;;;;3.35;2.58;;;;;;;17.73;76.73;96927.81;5081293;28;20511;-76
2021/07/08 03:58:59;;;;;;;8.35;5.72;;;;;;;17.75;75.74;96938.16;5080919;28;20044;-77
2021/07/08 04:01:27;;;;;;;5.00;3.15;;;;;;;17.78;77.89;96943.81;5080773;28;20052;-76
2021/07/08 04:03:54;;;;;;;4.47;3.53;;;;;;;17.82;77.04;96965.31;5080031;28;20056;-77
2021/07/08 04:06:22;;;;;;;7.07;3.70;;;;;;;17.79;77.08;96971.00;5068541;28;20045;-78
2021/07/08 04:08:49;;;;;;;6.40;4.35;;;;;;;17.81;78.19;96982.94;5063455;28;20494;-77
2021/07/08 04:11:17;;;;;;;6.55;4.05;;;;;;;17.77;76.81;96970.41;5059499;28;20045;-77
2021/07/08 04:13:44;;;;;;;9.98;4.43;;;;;;;17.70;76.76;96979.19;5065834;28;20056;-77
2021/07/08 04:16:13;;;;;;;7.68;4.65;;;;;;;17.65;76.70;96981.69;5080433;28;20394;-77
2021/07/08 04:18:41;;;;;;;6.15;4.03;;;;;;;17.62;76.79;96987.41;5080817;28;20390;-77
2021/07/08 04:21:08;;;;;;;5.25;3.80;;;;;;;17.61;78.13;96983.16;5082251;28;20045;-78
2021/07/08 04:23:36;;;;;;;7.25;4.00;;;;;;;17.60;77.00;96994.72;5063426;28;20464;-79
2021/07/08 04:26:03;;;;;;;4.28;3.42;;;;;;;17.61;77.99;97004.25;5063898;28;20052;-79
2021/07/08 04:28:31;;;;;;;7.72;3.60;;;;;;;17.68;78.55;97017.38;5063235;28;20060;-80
2021/07/08 04:30:59;;;;;;;5.20;3.35;;;;;;;17.74;78.65;97028.91;5064115;28;20107;-77
2021/07/08 04:33:28;;;;;;;6.63;3.28;;;;;;;17.77;79.14;97028.47;5063856;28;20044;-77
2021/07/08 04:35:55;;;;;;;3.70;3.30;;;;;;;17.78;78.41;97032.75;5065009;28;20049;-78
2021/07/08 04:38:23;;;;;;;6.85;3.55;;;;;;;17.78;77.93;97019.53;5070316;28;20048;-75
2021/07/08 04:40:50;;;;;;;4.65;3.25;;;;;;;17.78;78.45;97022.19;5084160;28;20048;-78
2021/07/08 04:43:18;;;;;;;10.32;7.55;;;;;;;17.75;77.22;97023.41;5083244;28;20053;-80
2021/07/08 04:45:45;;;;;;;11.88;6.85;;;;;;;17.74;77.05;97010.44;5081854;28;20052;-76
2021/07/08 04:48:13;;;;;;;6.13;4.00;;;;;;;17.73;76.93;97019.38;5080792;28;20507;-76
2021/07/08 04:50:43;;;;;;;7.43;3.28;;;;;;;17.72;76.63;97015.94;5080886;28;20036;-77
2021/07/08 04:53:14;;;;;;;6.88;3.17;;;;;;;17.70;76.96;97016.13;5080941;28;20052;-77
2021/07/08 04:55:42;;;;;;;6.88;3.40;;;;;;;17.69;77.09;97009.25;5080468;28;20048;-78
2021/07/08 04:58:09;;;;;;;5.25;3.08;;;;;;;17.66;77.33;97000.97;5079870;28;20049;-76
2021/07/08 05:00:37;;;;;;;4.35;3.00;;;;;;;17.62;77.58;96992.69;5081706;28;20052;-76
2021/07/08 05:03:07;;;;;;;4.20;3.22;;;;;;;17.61;77.78;96992.91;5081893;28;20132;-76
2021/07/08 05:05:34;;;;;;;3.63;3.00;;;;;;;17.60;77.78;96989.47;5082108;28;20048;-77
2021/07/08 05:08:03;;;;;;;4.43;2.78;;;;;;;17.59;77.66;96985.19;5082648;28;20098;-81
2021/07/08 05:10:31;;;;;;;5.80;3.08;;;;;;;17.58;77.54;96980.94;5082108;28;20045;-77
2021/07/08 05:12:59;;;;;;;4.68;3.10;;;;;;;17.57;77.39;96978.53;5080949;28;20060;-75
2021/07/08 05:15:27;;;;;;;14.18;3.28;;;;;;;17.55;77.55;96978.72;5081277;28;20463;-78
2021/07/08 05:17:55;;;;;;;3.55;3.25;;;;;;;17.53;77.64;96978.13;5081388;28;20482;-76
2021/07/08 05:20:25;;;;;;;4.95;3.15;;;;;;;17.53;77.79;96979.97;5080907;28;20098;-77
2021/07/08 05:22:59;;;;;;;4.55;2.92;;;;;;;17.58;79.20;96980.94;5080805;28;20314;-80
2021/07/08 05:25:28;;;;;;;6.75;3.88;;;;;;;17.67;80.26;96995.47;5081924;28;20055;-79
2021/07/08 05:27:55;;;;;;;4.38;3.00;;;;;;;17.75;80.06;96980.38;5081266;28;20501;-77
2021/07/08 05:30:23;;;;;;;4.10;2.90;;;;;;;17.78;79.35;96985.25;5081584;28;20105;-77
2021/07/08 05:32:51;;;;;;;5.35;3.30;;;;;;;17.82;79.99;96981.97;5080974;28;20062;-78
2021/07/08 05:35:19;;;;;;;4.25;2.75;;;;;;;17.89;80.94;96981.91;5081863;28;20072;-77
2021/07/08 05:37:48;;;;;;;5.40;3.90;;;;;;;17.91;79.14;96985.94;5081706;28;20052;-78
2021/07/08 05:40:17;;;;;;;5.25;3.33;;;;;;;17.88;78.43;96985.56;5080749;28;20094;-76
2021/07/08 05:42:46;;;;;;;4.38;3.20;;;;;;;17.83;77.85;96988.84;5081387;28;20425;-78
2021/07/08 05:45:14;;;;;;;4.07;3.00;;;;;;;17.80;77.84;96988.44;5082286;28;20116;-77
2021/07/08 05:47:41;;;;;;;4.80;3.58;;;;;;;17.77;78.07;96996.81;5081145;28;20044;-77
2021/07/08 05:50:10;;;;;;;4.40;3.58;;;;;;;17.73;78.12;96992.97;5081012;28;20048;-79
2021/07/08 05:52:38;;;;;;;5.55;3.75;;;;;;;17.69;78.41;96997.91;5080512;28;20052;-78
2021/07/08 05:55:06;;;;;;;6.05;3.20;;;;;;;17.71;78.80;96996.66;5081398;28;20048;-79
2021/07/08 05:57:34;;;;;;;4.35;3.15;;;;;;;17.73;79.03;96998.25;5080901;28;20497;-78
2021/07/08 06:00:05;;;;;;;7.07;3.45;;;;;;;17.74;78.25;96987.50;5081770;28;20048;-78
2021/07/08 06:02:32;;;;;;;5.57;3.58;;;;;;;17.72;77.97;96989.53;5081426;28;20056;-78
2021/07/08 06:05:01;;;;;;;9.68;4.45;;;;;;;17.68;77.96;96975.97;5079787;28;20057;-78
2021/07/08 06:07:28;;;;;;;7.53;4.07;;;;;;;17.66;78.12;96972.75;5080196;28;20082;-79
2021/07/08 06:09:56;;;;;;;3.80;3.15;;;;;;;17.66;78.22;96983.28;5082128;28;20461;-77
2021/07/08 06:12:23;;;;;;;5.88;3.90;;;;;;;17.65;78.39;97005.44;5081141;28;20509;-81
2021/07/08 06:14:51;;;;;;;6.40;4.10;;;;;;;17.64;78.21;97027.53;5081897;28;20051;-77
2021/07/08 06:17:20;;;;;;;6.95;4.13;;;;;;;17.59;78.00;97023.97;5081544;28;20520;-78
2021/07/08 06:19:47;;;;;;;4.22;3.30;;;;;;;17.57;78.40;96999.63;5080651;28;20048;-77
2021/07/08 06:22:15;;;;;;;3.42;2.67;;;;;;;17.56;78.14;96992.72;5080619;28;20044;-80
2021/07/08 06:24:43;;;;;;;4.10;3.63;;;;;;;17.56;77.76;96993.56;5080879;28;20055;-80
2021/07/08 06:27:10;;;;;;;4.93;3.90;;;;;;;17.59;79.35;97002.84;5081766;28;20509;-77
2021/07/08 06:29:38;;;;;;;5.50;4.28;;;;;;;17.64;79.64;97011.72;5081330;28;20478;-78
2021/07/08 06:32:06;;;;;;;4.03;3.03;;;;;;;17.65;78.92;97013.34;5080899;28;20052;-78
2021/07/08 06:34:35;;;;;;;3.58;2.85;;;;;;;17.66;78.42;97012.31;5078441;28;20424;-79
2021/07/08 06:37:02;;;;;;;8.20;3.40;;;;;;;17.69;79.07;97008.47;5081110;28;20243;-80
2021/07/08 06:39:30;;;;;;;3.40;2.47;;;;;;;17.71;79.54;97025.69;5081271;28;20066;-78
2021/07/08 06:41:57;;;;;;;3.15;2.20;;;;;;;17.76;79.42;97040.06;5081135;28;20059;-79
2021/07/08 06:44:25;;;;;;;3.65;2.10;;;;;;;17.76;78.15;97042.69;5081179;28;20059;-78
2021/07/08 06:46:54;;;;;;;2.40;2.20;;;;;;;17.76;78.40;97040.06;5080656;28;20094;-78
2021/07/08 06:49:22;;;;;;;2.17;1.80;;;;;;;17.80;77.86;97041.22;5080492;28;20102;-78
2021/07/08 06:51:51;;;;;;;3.50;2.38;;;;;;;17.83;79.39;97046.91;5081553;28;20052;-76
2021/07/08 06:54:18;;;;;;;2.58;1.90;;;;;;;17.90;80.12;97052.13;5080781;28;20048;-78
2021/07/08 06:56:46;;;;;;;5.60;1.98;;;;;;;17.95;79.61;97049.66;5081308;28;20045;-78
2021/07/08 06:59:14;;;;;;;2.88;1.90;;;;;;;17.97;78.51;97062.63;5080636;28;20051;-77
2021/07/08 07:01:41;;;;;;;3.03;1.90;;;;;;;18.01;79.34;97064.59;5080733;28;20067;-76
2021/07/08 07:04:09;;;;;;;13.77;2.67;;;;;;;18.06;79.90;97062.13;5080294;28;20076;-78
2021/07/08 07:06:36;;;;;;;2.55;2.10;;;;;;;18.10;79.44;97050.13;5080942;28;20045;-79
2021/07/08 07:09:05;;;;;;;4.57;1.92;;;;;;;18.10;77.75;97042.19;5080328;28;20067;-77
2021/07/08 07:11:33;;;;;;;6.15;1.95;;;;;;;18.08;77.54;97038.13;5081123;28;20052;-78
2021/07/08 07:14:01;;;;;;;3.35;2.20;;;;;;;18.06;77.34;97035.75;5080747;28;20056;-79
2021/07/08 07:16:28;;;;;;;5.20;2.63;;;;;;;18.10;78.87;97042.19;5080721;28;20053;-78
2021/07/08 07:18:56;;;;;;;4.00;2.90;;;;;;;18.12;78.16;97042.75;5080538;28;20101;-78
2021/07/08 07:21:23;;;;;;;3.63;2.03;;;;;;;18.14;77.06;97041.75;5080815;28;20453;-81
2021/07/08 07:23:51;;;;;;;2.45;1.60;;;;;;;18.11;76.61;97041.16;5080042;28;20059;-77
2021/07/08 07:26:21;;;;;;;3.20;2.10;;;;;;;18.09;77.01;97039.78;5080338;28;20057;-77
2021/07/08 07:28:49;;;;;;;3.13;2.30;;;;;;;18.11;77.58;97043.00;5079739;28;20053;-80
2021/07/08 07:31:16;;;;;;;6.85;3.20;;;;;;;18.17;79.29;97036.03;5080284;28;20049;-83
2021/07/08 07:33:45;;;;;;;8.02;5.30;;;;;;;18.19;78.38;97039.25;5079145;28;20052;-76
2021/07/08 07:36:13;;;;;;;4.93;4.43;;;;;;;18.19;77.63;97036.63;5079580;28;20053;-76
2021/07/08 07:38:41;;;;;;;8.13;5.07;;;;;;;18.23;79.52;97032.50;5079570;28;20044;-76
2021/07/08 07:41:09;;;;;;;5.15;4.47;;;;;;;18.29;79.59;97023.72;5078902;28;20064;-77
2021/07/08 07:43:38;;;;;;;10.18;5.45;;;;;;;18.35;79.11;97016.75;5079214;28;20057;-80
2021/07/08 07:46:05;;;;;;;5.15;4.20;;;;;;;18.33;77.45;97023.06;5080462;28;20049;-76
2021/07/08 07:48:34;;;;;;;11.30;5.55;;;;;;;18.37;78.66;97031.34;5080301;28;20094;-76
2021/07/08 07:51:02;;;;;;;8.27;5.22;;;;;;;18.42;79.85;97039.41;5079776;28;20501;-79
2021/07/08 07:53:29;;;;;;;5.00;3.72;;;;;;;18.50;79.75;97046.25;5079814;28;20406;-76
2021/07/08 07:55:56;;;;;;;6.72;2.92;;;;;;;18.57;79.67;97062.03;5079687;28;20055;-76
2021/07/08 07:58:26;;;;;;;4.00;3.15;;;;;;;18.61;79.27;97058.72;5080183;28;20049;-76
2021/07/08 08:00:57;;;;;;;7.10;3.63;;;;;;;18.64;79.12;97046.88;5080178;28;20051;-78
2021/07/08 08:03:25;;;;;;;4.40;3.05;;;;;;;18.65;78.75;97043.19;5079348;28;20080;-77
2021/07/08 08:08:27;;;;;;;3.67;2.78;;;;;;;18.63;77.32;97050.53;5078949;28;20045;-77
2021/07/08 08:08:42;;;;;;;11.52;4.45;;;;;;;18.65;78.84;97051.97;5079537;28;20052;-79
2021/07/08 08:11:11;;;;;;;2.60;2.40;;;;;;;18.65;76.91;97040.56;5079472;28;20054;-75
2021/07/08 08:13:39;;;;;;;3.10;2.17;;;;;;;18.66;75.86;97047.47;5078938;28;20056;-78
2021/07/08 08:16:08;;;;;;;3.53;2.60;;;;;;;18.63;75.04;97047.91;5079066;28;20064;-76
2021/07/08 08:18:36;;;;;;;4.07;2.53;;;;;;;18.62;75.32;97051.59;5079061;28;20052;-81
2021/07/08 08:21:10;;;;;;;9.05;3.80;;;;;;;18.67;77.12;97046.44;5078620;28;20063;-80
2021/07/08 08:23:37;;;;;;;2.92;2.35;;;;;;;18.69;75.82;97050.50;5078314;28;20052;-77
2021/07/08 08:26:05;;;;;;;3.85;2.30;;;;;;;18.71;75.12;97052.88;5078909;28;20050;-76
2021/07/08 08:28:32;;;;;;;5.63;2.25;;;;;;;18.68;74.52;97048.84;5079588;28;20058;-79
2021/07/08 08:31:00;;;;;;;7.50;3.40;;;;;;;18.68;76.08;97051.50;5082235;28;20094;-77
2021/07/08 08:33:29;;;;;;;7.65;3.10;;;;;;;18.69;75.70;97049.66;5081109;28;20063;-80
2021/07/08 08:35:56;;;;;;;8.68;3.80;;;;;;;18.73;77.31;97050.84;5081788;28;20056;-77
2021/07/08 08:38:24;;;;;;;7.22;2.97;;;;;;;18.72;75.38;97050.03;5082722;28;20418;-78
2021/07/08 08:40:52;;;;;;;10.95;3.20;;;;;;;18.68;75.12;97043.56;5082802;28;20049;-79
2021/07/08 08:43:20;;;;;;;8.18;3.20;;;;;;;18.71;76.74;97042.31;5082483;28;20067;-79
2021/07/08 08:45:48;;;;;;;2.80;2.60;;;;;;;18.76;76.64;97041.66;5081669;28;20440;-77
2021/07/08 08:48:15;;;;;;;8.90;2.95;;;;;;;18.77;76.01;97036.16;5083815;28;20041;-79
2021/07/08 08:50:45;;;;;;;7.22;3.70;;;;;;;18.81;76.98;97028.63;5083435;28;20045;-77
2021/07/08 08:53:15;;;;;;;6.55;3.03;;;;;;;18.83;76.24;97024.72;5084241;28;20424;-76
2021/07/08 08:55:43;;;;;;;4.38;2.88;;;;;;;18.85;75.40;97021.84;5082527;28;20045;-76
2021/07/08 08:58:13;;;;;;;6.38;3.63;;;;;;;18.89;77.52;97031.75;5082497;28;20063;-82
2021/07/08 09:00:47;;;;;;;3.80;2.58;;;;;;;18.93;77.20;97032.94;5082074;28;20075;-75
2021/07/08 09:03:17;;;;;;;5.88;2.92;;;;;;;18.98;77.30;97037.53;5081727;28;20049;-76
2021/07/08 09:05:48;;;;;;;2.90;2.10;;;;;;;19.00;75.49;97027.56;5082019;28;20048;-79
2021/07/08 09:08:21;;;;;;;4.93;2.53;;;;;;;18.97;75.05;97030.63;5081649;28;20516;-77
2021/07/08 09:10:51;;;;;;;5.28;2.53;;;;;;;18.93;75.38;97032.94;5081961;28;20040;-78
2021/07/08 09:13:19;;;;;;;7.65;2.58;;;;;;;18.94;75.69;97037.16;5081272;28;20040;-78
2021/07/08 09:15:46;;;;;;;6.53;2.40;;;;;;;18.92;74.88;97044.50;5081167;28;20098;-76
2021/07/08 09:18:15;;;;;;;5.50;2.03;;;;;;;18.88;75.03;97040.69;5081720;28;20044;-77
2021/07/08 09:20:43;;;;;;;4.75;2.20;;;;;;;18.84;75.63;97047.47;5080703;28;20052;-77
2021/07/08 09:23:17;;;;;;;6.75;2.20;;;;;;;18.83;75.61;97045.06;5080481;28;20048;-78
2021/07/08 09:25:47;;;;;;;4.43;2.17;;;;;;;18.83;75.96;97045.88;5081203;28;20512;-79
2021/07/08 09:28:19;;;;;;;9.50;2.88;;;;;;;18.83;75.77;97040.56;5081051;28;20052;-78
2021/07/08 09:30:55;;;;;;;;;;;;;;;18.84;75.69;97041.38;5081902;28;20063;-77
2021/07/08 09:33:38;;;;;;;6.25;3.92;;;;;;;18.82;76.39;97036.31;5080374;28;19920;-76
2021/07/08 09:36:10;;;;;;;;;;;;;;;18.85;76.31;97035.88;5080528;28;20056;-77
2021/07/08 09:38:41;;;;;;;6.72;3.60;;;;;;;18.85;76.05;97027.94;5080496;28;19928;-77
2021/07/08 09:41:16;;;;;;;8.43;4.20;;;;;;;18.84;76.08;97025.50;5081518;28;20063;-76
2021/07/08 09:43:45;;;;;;;6.45;4.75;;;;;;;18.84;76.09;97036.09;5079817;28;20505;-77
2021/07/08 09:46:14;;;;;;;12.95;5.88;;;;;;;18.85;76.38;97041.16;5080006;28;20425;-78
2021/07/08 09:49:04;;;;;;;10.18;5.97;;;;;;;18.90;78.02;97043.13;5079991;28;20083;-77
2021/07/08 09:51:32;;;;;;;7.60;5.40;;;;;;;18.94;78.24;97039.81;5080149;28;20045;-78
2021/07/08 09:54:10;;;;;;;6.47;3.80;;;;;;;18.95;77.28;97030.03;5079682;28;20064;-76
2021/07/08 09:56:45;;;;;;;8.00;4.22;;;;;;;18.95;76.99;97027.41;5079843;28;20051;-77
2021/07/08 09:59:13;;;;;;;5.38;4.43;;;;;;;18.98;76.88;97010.28;5079206;28;20421;-78
2021/07/08 10:01:43;;;;;;;7.15;3.97;;;;;;;19.02;77.55;97011.44;5079903;28;20060;-77
2021/07/08 10:04:11;;;;;;;4.07;3.38;;;;;;;19.07;77.67;97006.31;5078644;28;20079;-77
2021/07/08 10:06:39;;;;;;;4.32;3.25;;;;;;;19.09;77.88;97001.59;5078795;28;20520;-77
2021/07/08 10:09:08;;;;;;;3.97;3.55;;;;;;;19.15;78.91;97011.25;5078426;28;20513;-78
2021/07/08 10:11:36;;;;;;;5.95;3.60;;;;;;;19.17;78.07;97009.19;5077897;28;20059;-77
2021/07/08 10:14:05;;;;;;;3.78;3.47;;;;;;;19.21;78.65;97014.84;5077953;28;20398;-77
2021/07/08 10:16:35;;;;;;;6.00;3.92;;;;;;;19.24;78.06;97009.06;5078178;28;20055;-79
2021/07/08 10:19:06;;;;;;;4.97;4.40;;;;;;;19.26;78.09;97018.44;5079265;28;20045;-78
2021/07/08 10:21:35;;;;;;;7.15;4.78;;;;;;;19.27;77.67;97020.03;5079140;28;20048;-78
2021/07/08 10:24:03;;;;;;;6.95;4.00;;;;;;;19.28;77.79;97005.75;5078456;28;20048;-78
2021/07/08 10:26:33;;;;;;;5.63;3.35;;;;;;;19.28;77.38;96983.78;5078512;28;20059;-77
2021/07/08 10:29:01;;;;;;;4.82;3.67;;;;;;;19.30;77.52;96973.78;5078348;28;20187;-78
2021/07/08 10:31:29;;;;;;;3.47;3.17;;;;;;;19.32;77.72;96964.59;5079521;28;20044;-80
2021/07/08 10:34:08;;;;;;;5.53;3.03;;;;;;;19.34;78.05;96967.81;5077803;28;20052;-77
2021/07/08 10:36:37;;;;;;;3.75;2.78;;;;;;;19.39;78.27;96998.06;5078076;28;20112;-78
2021/07/08 10:39:06;;;;;;;3.47;2.80;;;;;;;19.42;78.68;97024.88;5078516;28;20055;-78
2021/07/08 10:41:43;;;;;;;2.50;2.30;;;;;;;19.45;78.47;97032.34;5078733;28;20087;-78
2021/07/08 10:44:40;;;;;;;3.85;2.85;;;;;;;19.47;78.63;97029.50;5077705;28;20063;-78
2021/07/08 10:47:28;;;;;;;3.53;2.45;;;;;;;19.47;77.92;97040.88;5078640;28;20459;-77
2021/07/08 10:49:55;;;;;;;2.45;2.20;;;;;;;19.49;77.80;97043.31;5078500;28;20041;-78
2021/07/08 10:52:47;;;;;;;3.10;2.33;;;;;;;19.52;77.14;97021.66;5077822;28;20045;-79
2021/07/08 10:55:39;;;;;;;3.50;1.98;;;;;;;19.54;77.65;97024.91;5079258;28;20055;-79
2021/07/08 10:58:28;;;;;;;2.17;1.97;;;;;;;19.53;77.05;97041.81;5077821;28;20052;-80
2021/07/08 11:00:56;;;;;;;2.60;2.33;;;;;;;19.57;77.25;97056.22;5079040;28;20139;-78
2021/07/08 11:03:46;;;;;;;2.55;2.38;;;;;;;19.60;77.93;97063.69;5078952;28;20052;-78
2021/07/08 11:06:19;;;;;;;3.10;2.80;;;;;;;19.59;76.55;97048.84;5078598;28;20048;-76
2021/07/08 11:09:02;;;;;;;2.25;1.92;;;;;;;19.61;76.31;97060.00;5079422;28;20049;-78
2021/07/08 11:12:05;;;;;;;2.70;2.20;;;;;;;19.62;76.31;97064.25;5077554;28;20048;-76
2021/07/08 11:14:43;;;;;;;2.35;2.15;;;;;;;19.66;77.25;97083.16;5078280;28;20059;-76
2021/07/08 11:17:21;;;;;;;3.75;2.00;;;;;;;19.68;77.26;97105.69;5079082;28;20060;-77
2021/07/08 11:19:52;;;;;;;5.93;2.40;;;;;;;19.71;76.70;97115.06;5079746;28;20048;-76
2021/07/08 11:22:38;;;;;;;2.60;1.90;;;;;;;19.70;77.04;97113.44;5077935;28;20049;-76
2021/07/08 11:25:09;;;;;;;2.30;2.05;;;;;;;19.74;77.29;97101.34;5077816;28;20498;-77
2021/07/08 11:27:39;;;;;;;2.90;2.60;;;;;;;19.75;76.14;97098.50;5078454;28;20051;-78
2021/07/08 11:30:56;;;;;;;2.42;2.08;;;;;;;19.79;77.09;97077.69;5078596;28;20053;-79
2021/07/08 11:33:24;;;;;;;2.10;1.90;;;;;;;19.80;76.13;97065.25;5078979;28;20086;-77
2021/07/08 11:35:56;;;;;;;2.25;1.73;;;;;;;19.79;76.51;97053.03;5080110;28;20049;-77
2021/07/08 11:38:25;;;;;;;3.90;2.28;;;;;;;19.81;77.35;97045.66;5078210;28;20493;-78
2021/07/08 11:40:54;;;;;;;3.58;2.08;;;;;;;19.83;77.02;97035.66;5079066;28;20490;-79
2021/07/08 11:43:27;;;;;;;2.50;1.90;;;;;;;19.84;76.62;97040.72;5078417;28;20063;-78
2021/07/08 11:45:57;;;;;;;1.83;1.65;;;;;;;19.88;76.23;97056.97;5077936;28;20059;-82